MUC1158 EDNX-LOWS
Flight info
| Callsign | MUC1158 |
|---|---|
| Flight time | N/A |
| Altitude | 2500 |
| Route | VFR |
| Aircraft | C172/L-VGD/A |
Departure
| Time | 2026-05-07 07:51 |
|---|---|
| Airport | Schleissheim Airfield (EDNX) |
Arrival
| Time | N/A |
|---|---|
| Airport | Salzburg Airport (LOWS) |
| Time | Latitude | Longitude | Altitude | Speed | Heading |
|---|---|---|---|---|---|
| 2026-05-07 07:46 | 48.23655 | 11.55182 | 1595 ft | 0 kts | 341° |
| 2026-05-07 07:47 | 48.23662 | 11.55178 | 1595 ft | 1 kts | 336° |
| 2026-05-07 07:47 | 48.23683 | 11.55167 | 1595 ft | 6 kts | 348° |
| 2026-05-07 07:48 | 48.23753 | 11.55150 | 1595 ft | 13 kts | 353° |
| 2026-05-07 07:48 | 48.23806 | 11.55287 | 1595 ft | 19 kts | 75° |
| 2026-05-07 07:48 | 48.23857 | 11.55496 | 1594 ft | 23 kts | 77° |
| 2026-05-07 07:48 | 48.23887 | 11.55749 | 1595 ft | 26 kts | 76° |
| 2026-05-07 07:49 | 48.23941 | 11.56030 | 1595 ft | 29 kts | 78° |
| 2026-05-07 07:49 | 48.23978 | 11.56310 | 1595 ft | 13 kts | 94° |
| 2026-05-07 07:49 | 48.23982 | 11.56316 | 1595 ft | 4 kts | 252° |
| 2026-05-07 07:49 | 48.23981 | 11.56308 | 1595 ft | 0 kts | 257° |
| 2026-05-07 07:50 | 48.23975 | 11.56272 | 1595 ft | 20 kts | 257° |
| 2026-05-07 07:50 | 48.23904 | 11.55794 | 1612 ft | 63 kts | 251° |
| 2026-05-07 07:51 | 48.23819 | 11.55176 | 1825 ft | 61 kts | 260° |
| 2026-05-07 07:51 | 48.23751 | 11.54549 | 2017 ft | 61 kts | 260° |
| 2026-05-07 07:51 | 48.23651 | 11.53915 | 2207 ft | 63 kts | 255° |
| 2026-05-07 07:51 | 48.23571 | 11.53288 | 2422 ft | 61 kts | 255° |
| 2026-05-07 07:52 | 48.23459 | 11.52679 | 2621 ft | 61 kts | 254° |
| 2026-05-07 07:52 | 48.23325 | 11.52059 | 2780 ft | 66 kts | 252° |
| 2026-05-07 07:52 | 48.23171 | 11.51301 | 2811 ft | 83 kts | 254° |
| 2026-05-07 07:52 | 48.22946 | 11.50405 | 2803 ft | 96 kts | 237° |
| 2026-05-07 07:53 | 48.22352 | 11.49866 | 2796 ft | 99 kts | 208° |
| 2026-05-07 07:53 | 48.21673 | 11.49554 | 2793 ft | 97 kts | 204° |
| 2026-05-07 07:53 | 48.21018 | 11.49281 | 2795 ft | 95 kts | 203° |
| 2026-05-07 07:53 | 48.20345 | 11.49073 | 2797 ft | 96 kts | 199° |
| 2026-05-07 07:54 | 48.19669 | 11.48890 | 2801 ft | 96 kts | 199° |
| 2026-05-07 07:54 | 48.19017 | 11.48659 | 2800 ft | 95 kts | 204° |
| 2026-05-07 07:54 | 48.18365 | 11.48396 | 2821 ft | 95 kts | 204° |
| 2026-05-07 07:54 | 48.17792 | 11.48193 | 3167 ft | 74 kts | 202° |
| 2026-05-07 07:55 | 48.17296 | 11.48054 | 3392 ft | 71 kts | 202° |
| 2026-05-07 07:55 | 48.16783 | 11.47912 | 3494 ft | 82 kts | 203° |
| 2026-05-07 07:55 | 48.16163 | 11.47708 | 3508 ft | 96 kts | 204° |
| 2026-05-07 07:55 | 48.15520 | 11.47482 | 3500 ft | 95 kts | 204° |
| 2026-05-07 07:56 | 48.14867 | 11.47255 | 3500 ft | 94 kts | 204° |
| 2026-05-07 07:56 | 48.14225 | 11.47034 | 3503 ft | 93 kts | 204° |
| 2026-05-07 07:56 | 48.13587 | 11.46813 | 3507 ft | 93 kts | 204° |
| 2026-05-07 07:56 | 48.12949 | 11.46592 | 3504 ft | 94 kts | 203° |
| 2026-05-07 07:57 | 48.12311 | 11.46367 | 3501 ft | 94 kts | 204° |
| 2026-05-07 07:57 | 48.11671 | 11.46141 | 3506 ft | 94 kts | 204° |
| 2026-05-07 07:57 | 48.11005 | 11.45909 | 3503 ft | 95 kts | 204° |
| 2026-05-07 07:57 | 48.10358 | 11.45679 | 3506 ft | 95 kts | 204° |
| 2026-05-07 07:58 | 48.09704 | 11.45442 | 3502 ft | 95 kts | 206° |
| 2026-05-07 07:58 | 48.09056 | 11.45211 | 3505 ft | 94 kts | 205° |
| 2026-05-07 07:58 | 48.08408 | 11.44980 | 3504 ft | 94 kts | 205° |
| 2026-05-07 07:58 | 48.07748 | 11.44746 | 3509 ft | 93 kts | 205° |
| 2026-05-07 07:59 | 48.07108 | 11.44521 | 3513 ft | 93 kts | 204° |
| 2026-05-07 07:59 | 48.06464 | 11.44297 | 3507 ft | 93 kts | 205° |
| 2026-05-07 07:59 | 48.05832 | 11.44081 | 3513 ft | 93 kts | 205° |
| 2026-05-07 07:59 | 48.05191 | 11.43868 | 3504 ft | 93 kts | 205° |
| 2026-05-07 08:00 | 48.04562 | 11.43654 | 3504 ft | 92 kts | 205° |
| 2026-05-07 08:00 | 48.03936 | 11.43434 | 3505 ft | 92 kts | 204° |
| 2026-05-07 08:00 | 48.03303 | 11.43206 | 3517 ft | 93 kts | 205° |
| 2026-05-07 08:00 | 48.02665 | 11.42971 | 3522 ft | 94 kts | 205° |
| 2026-05-07 08:01 | 48.02005 | 11.42724 | 3519 ft | 95 kts | 206° |
| 2026-05-07 08:01 | 48.01360 | 11.42489 | 3516 ft | 95 kts | 205° |
| 2026-05-07 08:01 | 48.00708 | 11.42249 | 3505 ft | 94 kts | 205° |
| 2026-05-07 08:01 | 48.00066 | 11.42021 | 3518 ft | 94 kts | 204° |
| 2026-05-07 08:02 | 47.99411 | 11.41787 | 3512 ft | 95 kts | 204° |
| 2026-05-07 08:02 | 47.98755 | 11.41553 | 3493 ft | 95 kts | 204° |
| 2026-05-07 08:02 | 47.98109 | 11.41325 | 3488 ft | 94 kts | 205° |
| 2026-05-07 08:02 | 47.97458 | 11.41096 | 3500 ft | 94 kts | 204° |
| 2026-05-07 08:03 | 47.96813 | 11.40872 | 3491 ft | 94 kts | 203° |
| 2026-05-07 08:03 | 47.96153 | 11.40651 | 3481 ft | 93 kts | 204° |
| 2026-05-07 08:03 | 47.95515 | 11.40442 | 3501 ft | 93 kts | 205° |
| 2026-05-07 08:03 | 47.94868 | 11.40233 | 3498 ft | 94 kts | 205° |
| 2026-05-07 08:04 | 47.94218 | 11.40022 | 3497 ft | 93 kts | 204° |
| 2026-05-07 08:04 | 47.93570 | 11.39805 | 3514 ft | 95 kts | 204° |
| 2026-05-07 08:04 | 47.93153 | 11.39663 | 3515 ft | 96 kts | 203° |